sensor_id;sensor_type;location;lat;lon;timestamp;P1;durP1;ratioP1;P2;durP2;ratioP2
37280;SDS011;23169;41.804;12.596;2023-04-15T00:00:33;20.20;;;3.92;;
37280;SDS011;23169;41.804;12.596;2023-04-15T00:03:17;20.83;;;4.68;;
37280;SDS011;23169;41.804;12.596;2023-04-15T00:05:54;15.48;;;3.72;;
37280;SDS011;23169;41.804;12.596;2023-04-15T00:08:34;19.30;;;3.80;;
37280;SDS011;23169;41.804;12.596;2023-04-15T00:11:13;13.30;;;4.75;;
37280;SDS011;23169;41.804;12.596;2023-04-15T00:13:57;21.27;;;4.20;;
37280;SDS011;23169;41.804;12.596;2023-04-15T00:16:33;22.38;;;4.65;;
37280;SDS011;23169;41.804;12.596;2023-04-15T00:19:02;22.05;;;4.38;;
37280;SDS011;23169;41.804;12.596;2023-04-15T00:21:40;22.23;;;3.50;;
37280;SDS011;23169;41.804;12.596;2023-04-15T00:24:19;22.63;;;4.20;;
37280;SDS011;23169;41.804;12.596;2023-04-15T00:26:53;23.65;;;4.28;;
37280;SDS011;23169;41.804;12.596;2023-04-15T00:29:27;16.85;;;3.55;;
37280;SDS011;23169;41.804;12.596;2023-04-15T00:32:02;22.40;;;4.07;;
37280;SDS011;23169;41.804;12.596;2023-04-15T00:34:34;21.02;;;4.20;;
37280;SDS011;23169;41.804;12.596;2023-04-15T00:37:21;19.80;;;4.32;;
37280;SDS011;23169;41.804;12.596;2023-04-15T00:39:53;18.02;;;3.83;;
37280;SDS011;23169;41.804;12.596;2023-04-15T00:42:34;21.17;;;4.35;;
37280;SDS011;23169;41.804;12.596;2023-04-15T00:45:05;21.38;;;4.20;;
37280;SDS011;23169;41.804;12.596;2023-04-15T00:47:38;27.13;;;5.07;;
37280;SDS011;23169;41.804;12.596;2023-04-15T00:50:19;21.20;;;3.70;;
37280;SDS011;23169;41.804;12.596;2023-04-15T00:52:53;18.10;;;4.22;;
37280;SDS011;23169;41.804;12.596;2023-04-15T00:55:29;20.58;;;3.80;;
37280;SDS011;23169;41.804;12.596;2023-04-15T00:58:17;25.95;;;4.20;;
37280;SDS011;23169;41.804;12.596;2023-04-15T01:00:50;13.43;;;3.38;;
37280;SDS011;23169;41.804;12.596;2023-04-15T01:03:25;17.15;;;3.60;;
37280;SDS011;23169;41.804;12.596;2023-04-15T01:06:00;20.23;;;4.90;;
37280;SDS011;23169;41.804;12.596;2023-04-15T01:08:35;16.65;;;3.40;;
37280;SDS011;23169;41.804;12.596;2023-04-15T01:11:14;17.92;;;3.75;;
37280;SDS011;23169;41.804;12.596;2023-04-15T01:13:47;19.80;;;3.58;;
37280;SDS011;23169;41.804;12.596;2023-04-15T01:16:19;24.20;;;3.67;;
37280;SDS011;23169;41.804;12.596;2023-04-15T01:18:56;11.68;;;3.10;;
37280;SDS011;23169;41.804;12.596;2023-04-15T01:21:33;14.43;;;3.53;;
37280;SDS011;23169;41.804;12.596;2023-04-15T01:24:08;19.77;;;3.85;;
37280;SDS011;23169;41.804;12.596;2023-04-15T01:26:40;22.70;;;3.97;;
37280;SDS011;23169;41.804;12.596;2023-04-15T01:29:12;22.45;;;3.83;;
37280;SDS011;23169;41.804;12.596;2023-04-15T01:31:50;20.90;;;3.65;;
37280;SDS011;23169;41.804;12.596;2023-04-15T01:34:24;23.30;;;4.20;;
37280;SDS011;23169;41.804;12.596;2023-04-15T01:36:53;16.98;;;3.17;;
37280;SDS011;23169;41.804;12.596;2023-04-15T01:39:24;16.58;;;3.03;;
37280;SDS011;23169;41.804;12.596;2023-04-15T01:41:56;21.10;;;3.60;;
37280;SDS011;23169;41.804;12.596;2023-04-15T01:44:25;22.05;;;3.60;;
37280;SDS011;23169;41.804;12.596;2023-04-15T01:46:54;20.83;;;4.15;;
37280;SDS011;23169;41.804;12.596;2023-04-15T01:49:22;22.55;;;3.70;;
37280;SDS011;23169;41.804;12.596;2023-04-15T01:51:53;22.08;;;3.45;;
37280;SDS011;23169;41.804;12.596;2023-04-15T01:54:22;22.60;;;3.50;;
37280;SDS011;23169;41.804;12.596;2023-04-15T01:56:53;21.00;;;5.55;;
37280;SDS011;23169;41.804;12.596;2023-04-15T01:59:21;22.73;;;3.78;;
37280;SDS011;23169;41.804;12.596;2023-04-15T02:01:50;20.65;;;4.28;;
37280;SDS011;23169;41.804;12.596;2023-04-15T02:04:22;17.25;;;3.38;;
37280;SDS011;23169;41.804;12.596;2023-04-15T02:06:51;18.00;;;3.50;;
37280;SDS011;23169;41.804;12.596;2023-04-15T02:09:20;14.73;;;3.72;;
37280;SDS011;23169;41.804;12.596;2023-04-15T02:11:53;22.10;;;3.80;;
37280;SDS011;23169;41.804;12.596;2023-04-15T02:14:22;18.40;;;4.72;;
37280;SDS011;23169;41.804;12.596;2023-04-15T02:16:51;16.55;;;3.75;;
37280;SDS011;23169;41.804;12.596;2023-04-15T02:19:20;16.27;;;2.78;;
37280;SDS011;23169;41.804;12.596;2023-04-15T02:21:48;25.55;;;3.92;;
37280;SDS011;23169;41.804;12.596;2023-04-15T02:24:27;18.58;;;3.22;;
37280;SDS011;23169;41.804;12.596;2023-04-15T02:26:57;18.38;;;3.45;;
37280;SDS011;23169;41.804;12.596;2023-04-15T02:29:25;22.48;;;4.43;;
37280;SDS011;23169;41.804;12.596;2023-04-15T02:31:54;20.80;;;3.70;;
37280;SDS011;23169;41.804;12.596;2023-04-15T02:34:24;22.48;;;3.35;;
37280;SDS011;23169;41.804;12.596;2023-04-15T02:36:54;20.05;;;4.03;;
37280;SDS011;23169;41.804;12.596;2023-04-15T02:39:24;22.70;;;4.15;;
37280;SDS011;23169;41.804;12.596;2023-04-15T02:41:53;24.33;;;4.40;;
37280;SDS011;23169;41.804;12.596;2023-04-15T02:44:25;18.70;;;3.28;;
37280;SDS011;23169;41.804;12.596;2023-04-15T02:46:55;17.83;;;3.45;;
37280;SDS011;23169;41.804;12.596;2023-04-15T02:49:24;18.83;;;4.03;;
37280;SDS011;23169;41.804;12.596;2023-04-15T02:51:53;22.55;;;3.90;;
37280;SDS011;23169;41.804;12.596;2023-04-15T02:54:23;20.08;;;4.57;;
37280;SDS011;23169;41.804;12.596;2023-04-15T02:56:53;25.95;;;3.25;;
37280;SDS011;23169;41.804;12.596;2023-04-15T02:59:25;22.13;;;3.80;;
37280;SDS011;23169;41.804;12.596;2023-04-15T03:01:53;28.45;;;4.43;;
37280;SDS011;23169;41.804;12.596;2023-04-15T03:04:45;18.73;;;2.65;;
37280;SDS011;23169;41.804;12.596;2023-04-15T03:07:31;17.42;;;3.92;;
37280;SDS011;23169;41.804;12.596;2023-04-15T03:10:02;14.27;;;2.80;;
37280;SDS011;23169;41.804;12.596;2023-04-15T03:12:35;14.70;;;2.90;;
37280;SDS011;23169;41.804;12.596;2023-04-15T03:15:04;21.17;;;3.03;;
37280;SDS011;23169;41.804;12.596;2023-04-15T03:17:34;17.65;;;3.40;;
37280;SDS011;23169;41.804;12.596;2023-04-15T03:20:03;14.48;;;2.47;;
37280;SDS011;23169;41.804;12.596;2023-04-15T03:22:35;13.52;;;2.65;;
37280;SDS011;23169;41.804;12.596;2023-04-15T03:25:07;12.40;;;2.70;;
37280;SDS011;23169;41.804;12.596;2023-04-15T03:27:46;14.07;;;3.45;;
37280;SDS011;23169;41.804;12.596;2023-04-15T03:30:15;10.52;;;2.45;;
37280;SDS011;23169;41.804;12.596;2023-04-15T03:32:46;13.75;;;2.65;;
37280;SDS011;23169;41.804;12.596;2023-04-15T03:35:15;15.48;;;2.80;;
37280;SDS011;23169;41.804;12.596;2023-04-15T03:37:43;12.95;;;2.55;;
37280;SDS011;23169;41.804;12.596;2023-04-15T03:40:12;15.25;;;3.03;;
37280;SDS011;23169;41.804;12.596;2023-04-15T03:42:41;16.80;;;3.35;;
37280;SDS011;23169;41.804;12.596;2023-04-15T03:45:10;14.85;;;2.92;;
37280;SDS011;23169;41.804;12.596;2023-04-15T03:47:40;17.70;;;3.30;;
37280;SDS011;23169;41.804;12.596;2023-04-15T03:50:08;17.60;;;4.00;;
37280;SDS011;23169;41.804;12.596;2023-04-15T03:52:37;11.45;;;2.90;;
37280;SDS011;23169;41.804;12.596;2023-04-15T03:55:06;12.55;;;3.20;;
37280;SDS011;23169;41.804;12.596;2023-04-15T03:57:36;13.70;;;3.58;;
37280;SDS011;23169;41.804;12.596;2023-04-15T04:00:06;17.13;;;3.33;;
37280;SDS011;23169;41.804;12.596;2023-04-15T04:02:38;19.35;;;3.45;;
37280;SDS011;23169;41.804;12.596;2023-04-15T04:05:08;8.90;;;3.22;;
37280;SDS011;23169;41.804;12.596;2023-04-15T04:07:40;17.67;;;3.03;;
37280;SDS011;23169;41.804;12.596;2023-04-15T04:10:08;13.82;;;3.35;;
37280;SDS011;23169;41.804;12.596;2023-04-15T04:12:38;16.63;;;2.95;;
37280;SDS011;23169;41.804;12.596;2023-04-15T04:15:09;15.70;;;3.50;;
37280;SDS011;23169;41.804;12.596;2023-04-15T04:17:38;20.67;;;3.35;;
37280;SDS011;23169;41.804;12.596;2023-04-15T04:20:07;17.25;;;2.83;;
37280;SDS011;23169;41.804;12.596;2023-04-15T04:22:38;11.20;;;2.85;;
37280;SDS011;23169;41.804;12.596;2023-04-15T04:25:08;10.98;;;2.97;;
37280;SDS011;23169;41.804;12.596;2023-04-15T04:27:37;17.63;;;2.85;;
37280;SDS011;23169;41.804;12.596;2023-04-15T04:30:06;14.98;;;2.85;;
37280;SDS011;23169;41.804;12.596;2023-04-15T04:32:36;13.27;;;2.97;;
37280;SDS011;23169;41.804;12.596;2023-04-15T04:35:05;16.08;;;2.90;;
37280;SDS011;23169;41.804;12.596;2023-04-15T04:37:34;13.40;;;3.08;;
37280;SDS011;23169;41.804;12.596;2023-04-15T04:40:03;10.95;;;2.75;;
37280;SDS011;23169;41.804;12.596;2023-04-15T04:42:40;11.60;;;3.30;;
37280;SDS011;23169;41.804;12.596;2023-04-15T04:45:09;14.38;;;2.53;;
37280;SDS011;23169;41.804;12.596;2023-04-15T04:47:38;11.52;;;2.72;;
37280;SDS011;23169;41.804;12.596;2023-04-15T04:50:08;11.90;;;3.10;;
37280;SDS011;23169;41.804;12.596;2023-04-15T04:52:38;12.55;;;3.05;;
37280;SDS011;23169;41.804;12.596;2023-04-15T04:55:06;15.90;;;3.90;;
37280;SDS011;23169;41.804;12.596;2023-04-15T04:57:37;15.32;;;3.13;;
37280;SDS011;23169;41.804;12.596;2023-04-15T05:00:09;15.60;;;2.95;;
37280;SDS011;23169;41.804;12.596;2023-04-15T05:02:38;18.45;;;3.42;;
37280;SDS011;23169;41.804;12.596;2023-04-15T05:05:09;15.30;;;2.70;;
37280;SDS011;23169;41.804;12.596;2023-04-15T05:07:38;17.73;;;3.55;;
37280;SDS011;23169;41.804;12.596;2023-04-15T05:10:07;10.18;;;2.75;;
37280;SDS011;23169;41.804;12.596;2023-04-15T05:12:36;14.18;;;2.60;;
37280;SDS011;23169;41.804;12.596;2023-04-15T05:15:05;10.43;;;2.38;;
37280;SDS011;23169;41.804;12.596;2023-04-15T05:17:35;14.75;;;4.00;;
37280;SDS011;23169;41.804;12.596;2023-04-15T05:20:04;8.48;;;2.70;;
37280;SDS011;23169;41.804;12.596;2023-04-15T05:22:33;15.68;;;2.55;;
37280;SDS011;23169;41.804;12.596;2023-04-15T05:25:02;12.65;;;3.35;;
37280;SDS011;23169;41.804;12.596;2023-04-15T05:27:31;13.70;;;2.67;;
37280;SDS011;23169;41.804;12.596;2023-04-15T05:30:03;12.85;;;2.80;;
37280;SDS011;23169;41.804;12.596;2023-04-15T05:32:33;15.82;;;2.55;;
37280;SDS011;23169;41.804;12.596;2023-04-15T05:35:02;12.93;;;2.80;;
37280;SDS011;23169;41.804;12.596;2023-04-15T05:37:31;13.57;;;3.00;;
37280;SDS011;23169;41.804;12.596;2023-04-15T05:39:59;10.18;;;2.40;;
37280;SDS011;23169;41.804;12.596;2023-04-15T05:42:28;18.63;;;3.00;;
37280;SDS011;23169;41.804;12.596;2023-04-15T05:44:57;14.02;;;2.67;;
37280;SDS011;23169;41.804;12.596;2023-04-15T05:47:25;5.90;;;2.47;;
37280;SDS011;23169;41.804;12.596;2023-04-15T05:49:55;11.25;;;2.25;;
37280;SDS011;23169;41.804;12.596;2023-04-15T05:52:26;6.85;;;2.58;;
37280;SDS011;23169;41.804;12.596;2023-04-15T05:54:54;8.15;;;2.78;;
37280;SDS011;23169;41.804;12.596;2023-04-15T05:57:23;7.75;;;1.98;;
37280;SDS011;23169;41.804;12.596;2023-04-15T05:59:51;11.40;;;2.25;;
37280;SDS011;23169;41.804;12.596;2023-04-15T06:02:23;7.53;;;2.20;;
37280;SDS011;23169;41.804;12.596;2023-04-15T06:05:04;7.18;;;1.85;;
37280;SDS011;23169;41.804;12.596;2023-04-15T06:07:38;7.57;;;2.22;;
37280;SDS011;23169;41.804;12.596;2023-04-15T06:10:07;5.93;;;2.00;;
37280;SDS011;23169;41.804;12.596;2023-04-15T06:12:36;8.82;;;1.92;;
37280;SDS011;23169;41.804;12.596;2023-04-15T06:15:06;10.35;;;1.77;;
37280;SDS011;23169;41.804;12.596;2023-04-15T06:17:37;5.50;;;2.08;;
37280;SDS011;23169;41.804;12.596;2023-04-15T06:20:05;8.05;;;2.13;;
37280;SDS011;23169;41.804;12.596;2023-04-15T06:22:38;5.90;;;1.67;;
37280;SDS011;23169;41.804;12.596;2023-04-15T06:25:06;3.25;;;1.30;;
37280;SDS011;23169;41.804;12.596;2023-04-15T06:27:36;5.68;;;1.73;;
37280;SDS011;23169;41.804;12.596;2023-04-15T06:30:05;4.70;;;1.77;;
37280;SDS011;23169;41.804;12.596;2023-04-15T06:32:35;2.92;;;1.23;;
37280;SDS011;23169;41.804;12.596;2023-04-15T06:35:04;1.73;;;1.50;;
37280;SDS011;23169;41.804;12.596;2023-04-15T06:37:33;8.32;;;2.15;;
37280;SDS011;23169;41.804;12.596;2023-04-15T06:40:02;3.47;;;1.55;;
37280;SDS011;23169;41.804;12.596;2023-04-15T06:42:32;5.10;;;1.35;;
37280;SDS011;23169;41.804;12.596;2023-04-15T06:45:02;2.85;;;1.80;;
37280;SDS011;23169;41.804;12.596;2023-04-15T06:47:31;4.10;;;1.17;;
37280;SDS011;23169;41.804;12.596;2023-04-15T06:49:59;5.30;;;1.10;;
37280;SDS011;23169;41.804;12.596;2023-04-15T06:52:30;2.17;;;1.80;;
37280;SDS011;23169;41.804;12.596;2023-04-15T06:54:58;2.40;;;1.20;;
37280;SDS011;23169;41.804;12.596;2023-04-15T06:57:28;4.03;;;1.15;;
37280;SDS011;23169;41.804;12.596;2023-04-15T06:59:56;7.18;;;1.92;;
37280;SDS011;23169;41.804;12.596;2023-04-15T07:02:25;8.43;;;2.10;;
37280;SDS011;23169;41.804;12.596;2023-04-15T07:04:54;4.63;;;1.90;;
37280;SDS011;23169;41.804;12.596;2023-04-15T07:07:23;14.88;;;2.67;;
37280;SDS011;23169;41.804;12.596;2023-04-15T07:09:52;11.30;;;2.42;;
37280;SDS011;23169;41.804;12.596;2023-04-15T07:12:23;9.68;;;3.53;;
37280;SDS011;23169;41.804;12.596;2023-04-15T07:14:53;9.20;;;2.90;;
37280;SDS011;23169;41.804;12.596;2023-04-15T07:17:22;11.27;;;2.15;;
37280;SDS011;23169;41.804;12.596;2023-04-15T07:19:50;8.75;;;2.63;;
37280;SDS011;23169;41.804;12.596;2023-04-15T07:22:19;12.85;;;3.30;;
37280;SDS011;23169;41.804;12.596;2023-04-15T07:24:48;11.20;;;2.65;;
37280;SDS011;23169;41.804;12.596;2023-04-15T07:27:17;14.88;;;3.05;;
37280;SDS011;23169;41.804;12.596;2023-04-15T07:29:45;22.35;;;3.55;;
37280;SDS011;23169;41.804;12.596;2023-04-15T07:32:14;20.33;;;4.88;;
37280;SDS011;23169;41.804;12.596;2023-04-15T07:34:43;10.02;;;2.85;;
37280;SDS011;23169;41.804;12.596;2023-04-15T07:37:12;10.55;;;2.90;;
37280;SDS011;23169;41.804;12.596;2023-04-15T07:39:40;14.63;;;3.90;;
37280;SDS011;23169;41.804;12.596;2023-04-15T07:42:09;21.92;;;4.10;;
37280;SDS011;23169;41.804;12.596;2023-04-15T07:44:39;12.43;;;2.63;;
37280;SDS011;23169;41.804;12.596;2023-04-15T07:47:08;10.77;;;2.90;;
37280;SDS011;23169;41.804;12.596;2023-04-15T07:49:36;17.13;;;3.05;;
37280;SDS011;23169;41.804;12.596;2023-04-15T07:52:05;9.40;;;2.30;;
37280;SDS011;23169;41.804;12.596;2023-04-15T07:54:34;15.60;;;2.75;;
37280;SDS011;23169;41.804;12.596;2023-04-15T07:57:02;12.57;;;3.20;;
37280;SDS011;23169;41.804;12.596;2023-04-15T07:59:31;16.70;;;2.78;;
37280;SDS011;23169;41.804;12.596;2023-04-15T08:02:00;15.27;;;3.70;;
37280;SDS011;23169;41.804;12.596;2023-04-15T08:04:30;15.82;;;2.72;;
37280;SDS011;23169;41.804;12.596;2023-04-15T08:06:59;11.90;;;2.40;;
37280;SDS011;23169;41.804;12.596;2023-04-15T08:09:27;9.35;;;2.50;;
37280;SDS011;23169;41.804;12.596;2023-04-15T08:11:56;14.18;;;2.38;;
37280;SDS011;23169;41.804;12.596;2023-04-15T08:14:25;6.93;;;1.95;;
37280;SDS011;23169;41.804;12.596;2023-04-15T08:16:54;9.73;;;2.22;;
37280;SDS011;23169;41.804;12.596;2023-04-15T08:19:22;3.35;;;2.22;;
37280;SDS011;23169;41.804;12.596;2023-04-15T08:21:51;5.15;;;1.75;;
37280;SDS011;23169;41.804;12.596;2023-04-15T08:24:19;3.80;;;1.80;;
37280;SDS011;23169;41.804;12.596;2023-04-15T08:26:49;8.43;;;2.22;;
37280;SDS011;23169;41.804;12.596;2023-04-15T08:29:17;7.95;;;1.85;;
37280;SDS011;23169;41.804;12.596;2023-04-15T08:31:46;4.22;;;1.60;;
37280;SDS011;23169;41.804;12.596;2023-04-15T08:34:14;3.35;;;1.80;;
37280;SDS011;23169;41.804;12.596;2023-04-15T08:36:44;3.88;;;2.28;;
37280;SDS011;23169;41.804;12.596;2023-04-15T08:39:13;4.30;;;2.28;;
37280;SDS011;23169;41.804;12.596;2023-04-15T08:41:45;4.43;;;2.42;;
37280;SDS011;23169;41.804;12.596;2023-04-15T08:44:15;16.80;;;2.47;;
37280;SDS011;23169;41.804;12.596;2023-04-15T08:46:45;12.73;;;2.65;;
37280;SDS011;23169;41.804;12.596;2023-04-15T08:49:15;15.30;;;2.67;;
37280;SDS011;23169;41.804;12.596;2023-04-15T08:51:46;13.20;;;2.53;;
37280;SDS011;23169;41.804;12.596;2023-04-15T08:54:16;11.98;;;3.05;;
37280;SDS011;23169;41.804;12.596;2023-04-15T08:56:47;13.73;;;2.38;;
37280;SDS011;23169;41.804;12.596;2023-04-15T08:59:15;12.60;;;1.95;;
37280;SDS011;23169;41.804;12.596;2023-04-15T09:01:44;9.95;;;1.73;;
37280;SDS011;23169;41.804;12.596;2023-04-15T09:04:13;14.32;;;2.83;;
37280;SDS011;23169;41.804;12.596;2023-04-15T09:06:45;9.48;;;2.30;;
37280;SDS011;23169;41.804;12.596;2023-04-15T09:09:14;12.02;;;2.40;;
37280;SDS011;23169;41.804;12.596;2023-04-15T09:11:43;13.70;;;2.70;;
37280;SDS011;23169;41.804;12.596;2023-04-15T09:14:12;12.38;;;2.25;;
37280;SDS011;23169;41.804;12.596;2023-04-15T09:16:59;10.18;;;2.17;;
37280;SDS011;23169;41.804;12.596;2023-04-15T09:19:32;15.30;;;2.53;;
37280;SDS011;23169;41.804;12.596;2023-04-15T09:22:02;6.53;;;1.80;;
37280;SDS011;23169;41.804;12.596;2023-04-15T09:24:38;7.28;;;2.03;;
37280;SDS011;23169;41.804;12.596;2023-04-15T09:27:11;12.60;;;1.88;;
37280;SDS011;23169;41.804;12.596;2023-04-15T09:29:43;8.13;;;2.28;;
37280;SDS011;23169;41.804;12.596;2023-04-15T09:32:16;10.48;;;2.17;;
37280;SDS011;23169;41.804;12.596;2023-04-15T09:34:45;5.05;;;1.90;;
37280;SDS011;23169;41.804;12.596;2023-04-15T09:37:15;11.10;;;3.35;;
37280;SDS011;23169;41.804;12.596;2023-04-15T09:39:46;11.07;;;2.22;;
37280;SDS011;23169;41.804;12.596;2023-04-15T09:42:17;15.82;;;3.10;;
37280;SDS011;23169;41.804;12.596;2023-04-15T09:44:54;15.10;;;2.25;;
37280;SDS011;23169;41.804;12.596;2023-04-15T09:47:26;12.02;;;2.28;;
37280;SDS011;23169;41.804;12.596;2023-04-15T09:49:56;8.70;;;2.13;;
37280;SDS011;23169;41.804;12.596;2023-04-15T09:52:27;10.75;;;2.28;;
37280;SDS011;23169;41.804;12.596;2023-04-15T09:54:56;7.38;;;2.10;;
37280;SDS011;23169;41.804;12.596;2023-04-15T09:57:32;11.35;;;1.73;;
37280;SDS011;23169;41.804;12.596;2023-04-15T10:00:04;10.60;;;1.98;;
37280;SDS011;23169;41.804;12.596;2023-04-15T10:02:35;11.65;;;2.47;;
37280;SDS011;23169;41.804;12.596;2023-04-15T10:05:06;10.60;;;2.10;;
37280;SDS011;23169;41.804;12.596;2023-04-15T10:07:39;4.95;;;1.45;;
37280;SDS011;23169;41.804;12.596;2023-04-15T10:10:09;6.07;;;1.63;;
37280;SDS011;23169;41.804;12.596;2023-04-15T10:12:39;9.25;;;2.63;;
37280;SDS011;23169;41.804;12.596;2023-04-15T10:15:12;5.57;;;2.50;;
37280;SDS011;23169;41.804;12.596;2023-04-15T10:17:45;3.35;;;1.48;;
37280;SDS011;23169;41.804;12.596;2023-04-15T10:20:19;6.07;;;1.50;;
37280;SDS011;23169;41.804;12.596;2023-04-15T10:22:49;6.60;;;1.52;;
37280;SDS011;23169;41.804;12.596;2023-04-15T10:25:20;8.63;;;1.90;;
37280;SDS011;23169;41.804;12.596;2023-04-15T10:27:49;8.00;;;2.20;;
37280;SDS011;23169;41.804;12.596;2023-04-15T10:30:19;9.60;;;1.85;;
37280;SDS011;23169;41.804;12.596;2023-04-15T10:32:49;12.98;;;2.30;;
37280;SDS011;23169;41.804;12.596;2023-04-15T10:35:19;9.23;;;1.67;;
37280;SDS011;23169;41.804;12.596;2023-04-15T10:37:49;8.98;;;1.55;;
37280;SDS011;23169;41.804;12.596;2023-04-15T10:40:30;13.98;;;2.47;;
37280;SDS011;23169;41.804;12.596;2023-04-15T10:43:00;8.63;;;2.35;;
37280;SDS011;23169;41.804;12.596;2023-04-15T10:45:33;16.55;;;3.00;;
37280;SDS011;23169;41.804;12.596;2023-04-15T10:48:05;11.15;;;3.35;;
37280;SDS011;23169;41.804;12.596;2023-04-15T10:50:36;9.38;;;2.67;;
37280;SDS011;23169;41.804;12.596;2023-04-15T10:53:06;9.73;;;2.03;;
37280;SDS011;23169;41.804;12.596;2023-04-15T10:55:38;11.48;;;2.33;;
37280;SDS011;23169;41.804;12.596;2023-04-15T10:58:07;15.73;;;2.40;;
37280;SDS011;23169;41.804;12.596;2023-04-15T11:00:37;6.88;;;2.47;;
37280;SDS011;23169;41.804;12.596;2023-04-15T11:03:10;13.38;;;2.20;;
37280;SDS011;23169;41.804;12.596;2023-04-15T11:08:08;5.07;;;1.90;;
37280;SDS011;23169;41.804;12.596;2023-04-15T11:15:42;8.07;;;2.05;;
37280;SDS011;23169;41.804;12.596;2023-04-15T11:18:19;14.25;;;1.88;;
37280;SDS011;23169;41.804;12.596;2023-04-15T11:20:53;15.30;;;2.90;;
37280;SDS011;23169;41.804;12.596;2023-04-15T11:25:59;6.95;;;1.50;;
37280;SDS011;23169;41.804;12.596;2023-04-15T11:28:31;10.18;;;2.58;;
37280;SDS011;23169;41.804;12.596;2023-04-15T11:31:07;14.25;;;2.08;;
37280;SDS011;23169;41.804;12.596;2023-04-15T11:33:46;11.45;;;2.50;;
37280;SDS011;23169;41.804;12.596;2023-04-15T11:36:29;13.80;;;2.25;;
37280;SDS011;23169;41.804;12.596;2023-04-15T11:38:58;10.30;;;1.95;;
37280;SDS011;23169;41.804;12.596;2023-04-15T11:41:27;12.40;;;1.83;;
37280;SDS011;23169;41.804;12.596;2023-04-15T11:43:56;5.93;;;1.67;;
37280;SDS011;23169;41.804;12.596;2023-04-15T11:46:28;7.97;;;2.28;;
37280;SDS011;23169;41.804;12.596;2023-04-15T11:48:58;8.82;;;2.97;;
37280;SDS011;23169;41.804;12.596;2023-04-15T11:51:30;7.72;;;2.08;;
37280;SDS011;23169;41.804;12.596;2023-04-15T11:54:00;14.98;;;3.22;;
37280;SDS011;23169;41.804;12.596;2023-04-15T11:56:31;11.15;;;2.30;;
37280;SDS011;23169;41.804;12.596;2023-04-15T11:58:59;16.83;;;2.45;;
37280;SDS011;23169;41.804;12.596;2023-04-15T12:01:35;15.18;;;2.50;;
37280;SDS011;23169;41.804;12.596;2023-04-15T12:04:12;13.90;;;3.38;;
37280;SDS011;23169;41.804;12.596;2023-04-15T12:06:44;13.20;;;2.83;;
37280;SDS011;23169;41.804;12.596;2023-04-15T12:09:13;10.85;;;3.05;;
37280;SDS011;23169;41.804;12.596;2023-04-15T12:11:45;16.70;;;2.38;;
37280;SDS011;23169;41.804;12.596;2023-04-15T12:14:28;19.17;;;2.95;;
37280;SDS011;23169;41.804;12.596;2023-04-15T12:16:58;7.38;;;2.15;;
37280;SDS011;23169;41.804;12.596;2023-04-15T12:19:36;14.88;;;2.38;;
37280;SDS011;23169;41.804;12.596;2023-04-15T12:22:10;11.88;;;3.15;;
37280;SDS011;23169;41.804;12.596;2023-04-15T12:24:41;9.43;;;2.05;;
37280;SDS011;23169;41.804;12.596;2023-04-15T12:27:11;7.45;;;1.73;;
37280;SDS011;23169;41.804;12.596;2023-04-15T12:29:41;9.68;;;2.22;;
37280;SDS011;23169;41.804;12.596;2023-04-15T12:32:13;15.80;;;2.55;;
37280;SDS011;23169;41.804;12.596;2023-04-15T12:34:44;12.02;;;1.85;;
37280;SDS011;23169;41.804;12.596;2023-04-15T12:37:18;14.73;;;2.58;;
37280;SDS011;23169;41.804;12.596;2023-04-15T12:39:48;9.60;;;2.00;;
37280;SDS011;23169;41.804;12.596;2023-04-15T12:42:17;15.18;;;2.90;;
37280;SDS011;23169;41.804;12.596;2023-04-15T12:44:47;12.60;;;2.03;;
37280;SDS011;23169;41.804;12.596;2023-04-15T12:47:16;12.43;;;2.85;;
37280;SDS011;23169;41.804;12.596;2023-04-15T12:49:45;16.00;;;3.35;;
37280;SDS011;23169;41.804;12.596;2023-04-15T12:52:14;12.20;;;3.05;;
37280;SDS011;23169;41.804;12.596;2023-04-15T12:54:43;9.20;;;2.38;;
37280;SDS011;23169;41.804;12.596;2023-04-15T12:57:12;20.45;;;3.17;;
37280;SDS011;23169;41.804;12.596;2023-04-15T12:59:41;17.40;;;2.75;;
37280;SDS011;23169;41.804;12.596;2023-04-15T13:02:10;13.60;;;2.42;;
37280;SDS011;23169;41.804;12.596;2023-04-15T13:04:39;8.80;;;2.17;;
37280;SDS011;23169;41.804;12.596;2023-04-15T13:07:07;11.80;;;2.42;;
37280;SDS011;23169;41.804;12.596;2023-04-15T13:09:36;11.38;;;2.05;;
37280;SDS011;23169;41.804;12.596;2023-04-15T13:12:06;11.07;;;2.33;;
37280;SDS011;23169;41.804;12.596;2023-04-15T13:14:35;6.78;;;1.80;;
37280;SDS011;23169;41.804;12.596;2023-04-15T13:17:04;9.38;;;1.88;;
37280;SDS011;23169;41.804;12.596;2023-04-15T13:19:37;9.65;;;1.50;;
37280;SDS011;23169;41.804;12.596;2023-04-15T13:22:06;18.98;;;2.58;;
37280;SDS011;23169;41.804;12.596;2023-04-15T13:24:36;14.20;;;2.20;;
37280;SDS011;23169;41.804;12.596;2023-04-15T13:27:06;11.45;;;2.10;;
37280;SDS011;23169;41.804;12.596;2023-04-15T13:29:35;7.72;;;2.13;;
37280;SDS011;23169;41.804;12.596;2023-04-15T13:32:04;2.83;;;1.33;;
37280;SDS011;23169;41.804;12.596;2023-04-15T13:34:34;7.22;;;1.67;;
37280;SDS011;23169;41.804;12.596;2023-04-15T13:37:06;6.70;;;2.08;;
37280;SDS011;23169;41.804;12.596;2023-04-15T13:39:39;8.50;;;2.25;;
37280;SDS011;23169;41.804;12.596;2023-04-15T13:42:08;12.77;;;2.05;;
37280;SDS011;23169;41.804;12.596;2023-04-15T13:44:38;15.18;;;2.40;;
37280;SDS011;23169;41.804;12.596;2023-04-15T13:47:07;11.10;;;2.17;;
37280;SDS011;23169;41.804;12.596;2023-04-15T13:49:37;8.60;;;2.33;;
37280;SDS011;23169;41.804;12.596;2023-04-15T13:52:06;16.02;;;3.08;;
37280;SDS011;23169;41.804;12.596;2023-04-15T13:54:35;11.00;;;2.30;;
37280;SDS011;23169;41.804;12.596;2023-04-15T13:57:05;18.08;;;2.58;;
37280;SDS011;23169;41.804;12.596;2023-04-15T13:59:36;9.23;;;2.33;;
37280;SDS011;23169;41.804;12.596;2023-04-15T14:02:08;11.68;;;2.72;;
37280;SDS011;23169;41.804;12.596;2023-04-15T14:04:38;14.93;;;2.70;;
37280;SDS011;23169;41.804;12.596;2023-04-15T14:07:08;10.75;;;2.70;;
37280;SDS011;23169;41.804;12.596;2023-04-15T14:09:37;5.45;;;2.00;;
37280;SDS011;23169;41.804;12.596;2023-04-15T14:12:05;13.15;;;2.22;;
37280;SDS011;23169;41.804;12.596;2023-04-15T14:14:35;13.32;;;2.88;;
37280;SDS011;23169;41.804;12.596;2023-04-15T14:17:05;7.72;;;2.45;;
37280;SDS011;23169;41.804;12.596;2023-04-15T14:19:34;15.88;;;2.88;;
37280;SDS011;23169;41.804;12.596;2023-04-15T14:22:02;13.35;;;2.60;;
37280;SDS011;23169;41.804;12.596;2023-04-15T14:24:33;16.63;;;2.30;;
37280;SDS011;23169;41.804;12.596;2023-04-15T14:27:01;16.63;;;3.22;;
37280;SDS011;23169;41.804;12.596;2023-04-15T14:29:30;10.55;;;2.08;;
37280;SDS011;23169;41.804;12.596;2023-04-15T14:31:59;5.88;;;1.38;;
37280;SDS011;23169;41.804;12.596;2023-04-15T14:34:30;12.45;;;2.80;;
37280;SDS011;23169;41.804;12.596;2023-04-15T14:37:04;13.90;;;2.35;;
37280;SDS011;23169;41.804;12.596;2023-04-15T14:39:33;12.68;;;2.72;;
37280;SDS011;23169;41.804;12.596;2023-04-15T14:42:02;10.43;;;2.25;;
37280;SDS011;23169;41.804;12.596;2023-04-15T14:44:33;21.25;;;2.90;;
37280;SDS011;23169;41.804;12.596;2023-04-15T14:47:02;16.98;;;4.03;;
37280;SDS011;23169;41.804;12.596;2023-04-15T14:49:30;9.05;;;2.33;;
37280;SDS011;23169;41.804;12.596;2023-04-15T14:51:59;12.65;;;2.95;;
37280;SDS011;23169;41.804;12.596;2023-04-15T14:54:28;12.40;;;2.47;;
37280;SDS011;23169;41.804;12.596;2023-04-15T14:56:58;12.65;;;2.97;;